KLRD

Laredo International Airport

Laredo, Texas, USA
METAR KLRD 200656Z 14018G24KT 10SM CLR 23/19 A2979 RMK AO2 PK WND 15029/0638 SLP089 T02280189
Observed Flight Rules
Feb-20 @ 06:56 UTC (42 minutes ago) Visual Flight Rules
Wind Visibility Clouds
140° at 18 knots
 Gusting to 24 knots
10 miles
  • Clear skies
Temperatures Readings
Current 23°C / 73°F
Dewpoint 19°C / 66°F
Humidity 78%
Altimeter 29.79" Hg
Pressure 1008.9 hPa
Elevation 155
METAR KLRD 200656Z 14018G24KT 10SM CLR 23/19 A2979 RMK AO2 PK WND 15029/0638 SLP089 T02280189
Observed Flight Rules
Feb-20 @ 06:56 UTC
(42 minutes ago)
VFR
Wind Visibility
140° at 18 knots
 Gusting to 24 knots
10 miles
Clouds
  • Clear skies
Temperature Dewpoint
23°C / 73°F 19°C / 66°F
Humidity Altimeter Pressure
78% 29.79" Hg 1008.9 hPa